Latest Weather Observations for Moree

IDN60801

Issued at 9:03 pm EST Friday 31 July 2015 (issued every 30 minutes, with the page automatically refreshed every 10 minutes)

About weather observations | Map of weather stations | Latest weather observations for NSW | Other Formats
Station Details ID: 053115 Name: MOREE AERO Lat: -29.49 Lon: 149.85 Height: 213.0 m
Data from the previous 72 hours. | See also: Recent months at Moree
Date/Time
EST
Temp
°C
App
Temp
°C
Dew
Point
Rel
Hum
%
Delta-T
°C
Wind Press
QNH
hPa
Press
MSL
hPa
Rain
since 9 am
mm
Dir
 
Spd
km/h
Gust
km/h
Spd
kts
Gust
kts
31/09:00pm 10.8 7.7 7.3 79 1.7 ENE 13 13 7 7 1022.9 1023.0 0.0
31/08:30pm 11.1 8.7 7.2 77 1.9 ENE 9 11 5 6 1022.6 1022.7 0.0
31/08:00pm 11.4 9.6 7.9 79 1.7 E 7 9 4 5 1022.6 1022.7 0.0
31/07:30pm 12.4 10.7 8.3 76 2.1 ENE 7 7 4 4 1022.5 1022.6 0.0
31/07:00pm 12.1 9.8 7.4 73 2.3 ENE 9 9 5 5 1022.4 1022.5 0.0
31/06:30pm 13.5 11.7 7.3 66 3.0 ENE 6 9 3 5 1022.0 1022.1 0.0
31/06:00pm 14.9 12.5 7.0 59 3.9 ENE 9 11 5 6 1021.8 1021.9 0.0
31/05:30pm 17.3 14.8 6.5 49 5.4 NE 9 11 5 6 1021.7 1021.8 0.0
31/05:00pm 18.6 16.0 6.1 44 6.2 NE 9 11 5 6 1021.5 1021.6 0.0
31/04:30pm 19.4 18.4 5.8 41 6.8 CALM 0 0 0 0 1021.2 1021.4 0.0
31/04:00pm 20.1 17.7 6.8 42 6.8 NNE 9 13 5 7 1021.2 1021.4 0.0
31/03:30pm 20.0 18.0 6.4 41 6.9 N 6 11 3 6 1021.2 1021.4 0.0
31/03:00pm 19.7 16.7 6.1 41 6.8 NW 11 17 6 9 1021.6 1021.7 0.0
31/02:30pm 19.7 17.5 6.1 41 6.8 NNW 7 13 4 7 1021.8 1021.9 0.0
31/02:00pm 19.3 16.5 5.0 39 7.0 NNW 9 15 5 8 1022.1 1022.2 0.0
31/01:30pm 19.4 16.9 6.5 43 6.5 NW 9 19 5 10 1022.2 1022.3 0.0
31/01:00pm 18.7 15.7 6.2 44 6.2 NW 11 20 6 11 1022.6 1022.7 0.0
31/12:30pm 18.8 16.2 7.6 48 5.7 NW 11 15 6 8 1023.0 1023.1 0.0
31/12:00pm 18.0 15.0 7.7 51 5.3 NW 13 22 7 12 1023.3 1023.4 0.0
31/11:30am 16.9 13.8 7.3 53 4.8 NNW 13 19 7 10 1023.8 1023.9 0.0
31/11:00am 15.8 12.6 7.0 56 4.4 N 13 17 7 9 1024.0 1024.2 0.0
31/10:30am 15.0 11.5 7.1 59 3.9 N 15 20 8 11 1024.2 1024.4 0.0
31/10:00am 13.7 10.4 7.9 68 2.9 NNE 15 19 8 10 1024.5 1024.7 0.0
31/09:30am 11.8 7.7 6.3 69 2.6 NNE 17 20 9 11 1024.5 1024.7 0.0
31/09:00am 10.7 6.8 5.5 70 2.4 NNE 15 19 8 10 1024.7 1024.9 0.0
31/08:30am 9.4 6.2 5.2 75 1.9 NE 11 13 6 7 1024.3 1024.5 0.0
31/08:00am 7.6 4.7 4.7 82 1.3 NE 9 11 5 6 1024.2 1024.4 0.0
31/07:30am 5.5 2.1 4.0 90 0.6 ENE 11 15 6 8 1023.8 1023.9 0.0
31/07:00am 4.2 -0.2 2.7 90 0.6 NE 15 17 8 9 1023.7 1023.8 0.0
31/06:30am 4.2 1.0 2.9 91 0.5 ENE 9 13 5 7 1023.3 1023.4 0.0
31/06:00am 4.3 1.1 2.8 90 0.6 ENE 9 11 5 6 1022.8 1022.9 0.0
31/05:30am 4.3 0.3 2.8 90 0.6 ENE 13 15 7 8 1022.5 1022.6 0.0
31/05:00am 4.6 1.0 3.1 90 0.6 ENE 11 13 6 7 1022.3 1022.4 0.0
31/04:30am 5.0 1.8 3.2 88 0.8 ENE 9 11 5 6 1022.3 1022.4 0.0
31/04:00am 5.6 2.2 3.9 89 0.7 ENE 11 13 6 7 1022.4 1022.5 0.0
31/03:30am 5.4 1.5 3.4 87 0.8 ENE 13 15 7 8 1022.4 1022.5 0.0
31/03:00am 5.8 3.1 3.8 87 0.9 ENE 7 11 4 6 1022.7 1022.8 0.0
31/02:30am 5.9 4.6 3.9 87 0.9 CALM 0 0 0 0 1022.6 1022.7 0.0
31/02:00am 6.3 2.9 4.0 85 1.0 NE 11 13 6 7 1022.8 1022.9 0.0
31/01:30am 7.7 4.0 4.7 81 1.3 NE 13 15 7 8 1023.0 1023.1 0.0
31/01:00am 7.5 3.5 4.8 83 1.2 NE 15 15 8 8 1023.4 1023.5 0.0
31/12:30am 8.7 5.4 4.7 76 1.8 NE 11 15 6 8 1023.7 1023.8 0.0
31/12:00am 9.0 4.6 5.0 76 1.8 NE 17 19 9 10 1023.6 1023.7 0.0
 
Date/Time
EST
Temp
°C
App
Temp
°C
Dew
Point
Rel
Hum
%
Delta-T
°C
Wind Press
QNH
hPa
Press
MSL
hPa
Rain
since 9 am
mm
Dir
 
Spd
km/h
Gust
km/h
Spd
kts
Gust
kts
30/11:30pm 8.2 5.4 5.1 81 1.4 ENE 9 13 5 7 1024.1 1024.3 0.0
30/11:00pm 8.6 6.1 5.0 78 1.6 ENE 7 9 4 5 1024.4 1024.6 0.0
30/10:30pm 9.2 6.0 5.2 76 1.8 NE 11 13 6 7 1024.1 1024.3 0.0
30/10:00pm 10.1 6.7 5.7 74 2.0 NE 13 15 7 8 1024.3 1024.5 0.0
30/09:30pm 10.1 6.6 5.5 73 2.1 NE 13 15 7 8 1024.1 1024.3 0.0
30/09:00pm 10.5 6.7 5.9 73 2.1 NE 15 17 8 9 1024.2 1024.4 0.0
30/08:30pm 9.8 6.3 5.6 75 1.9 NE 13 13 7 7 1024.3 1024.5 0.0
30/08:00pm 11.1 8.4 5.8 70 2.5 NNE 9 9 5 5 1024.5 1024.7 0.0
30/07:30pm 12.5 9.5 5.9 64 3.1 NNE 11 13 6 7 1024.4 1024.6 0.0
30/07:00pm 12.9 9.9 6.0 63 3.3 NNE 11 13 6 7 1023.8 1023.9 0.0
30/06:30pm 13.6 10.7 6.5 62 3.4 NNE 11 13 6 7 1023.7 1023.8 0.0
30/06:00pm 14.2 11.6 6.1 58 3.9 NNE 9 13 5 7 1023.8 1023.9 0.0
30/05:30pm 15.7 13.4 5.9 52 4.8 N 7 7 4 4 1023.9 1024.1 0.0
30/05:00pm 16.8 14.4 5.4 47 5.5 NNW 7 9 4 5 1024.0 1024.2 0.0
30/04:30pm 17.9 15.1 5.2 43 6.2 NNW 9 13 5 7 1024.2 1024.4 0.0
30/04:00pm 18.3 14.4 5.2 42 6.4 NW 15 20 8 11 1024.5 1024.7 0.0
30/03:30pm 18.4 14.9 5.3 42 6.4 WNW 13 20 7 11 1024.5 1024.7 0.0
30/03:00pm 18.6 14.4 5.8 43 6.3 NW 17 28 9 15 1025.0 1025.2 0.0
30/02:30pm 18.3 14.8 5.5 43 6.3 NNW 13 19 7 10 1024.8 1025.0 0.0
30/02:00pm 18.2 14.1 6.4 46 5.9 N 17 28 9 15 1025.1 1025.3 0.0
30/01:30pm 18.0 14.3 6.5 47 5.8 N 15 20 8 11 1025.9 1026.1 0.0
30/01:00pm 17.5 13.6 7.3 51 5.1 N 17 22 9 12 1026.0 1026.2 0.0
30/12:30pm 17.2 13.5 7.8 54 4.8 N 17 22 9 12 1026.7 1026.8 0.0
30/12:00pm 16.8 12.7 7.7 55 4.6 N 19 28 10 15 1027.3 1027.4 0.0
30/11:30am 16.5 11.9 6.3 51 5.0 NNE 20 30 11 16 1027.8 1028.0 0.0
30/11:00am 15.5 11.2 7.8 60 3.9 NNE 20 26 11 14 1028.3 1028.5 0.0
30/10:30am 15.4 11.2 8.2 62 3.7 NNE 20 26 11 14 1028.7 1028.9 0.0
30/10:00am 13.9 9.5 7.2 64 3.3 NNE 20 26 11 14 1028.9 1029.1 0.0
30/09:30am 12.9 9.0 7.1 68 2.8 NE 17 20 9 11 1029.0 1029.2 0.0
30/09:00am 11.1 7.7 6.0 71 2.4 ENE 13 19 7 10 1029.1 1029.3 0.0
30/08:30am 9.0 5.5 5.4 78 1.6 ENE 13 17 7 9 1028.9 1029.1 0.0
30/08:00am 6.9 2.3 3.9 81 1.3 E 17 22 9 12 1028.6 1028.8 0.0
30/07:30am 5.2 0.4 2.6 83 1.1 ENE 17 22 9 12 1028.4 1028.6 0.0
30/07:00am 4.0 -1.5 2.0 87 0.8 E 20 26 11 14 1028.2 1028.4 0.0
30/06:30am 3.4 -1.9 1.6 88 0.7 E 19 24 10 13 1027.8 1028.0 0.0
30/06:00am 3.2 -1.8 1.6 89 0.6 ENE 17 22 9 12 1027.6 1027.7 0.0
30/05:30am 3.6 -2.0 1.5 86 0.8 ENE 20 28 11 15 1027.5 1027.6 0.0
30/05:00am 3.9 -1.6 1.9 87 0.8 E 20 28 11 15 1027.4 1027.5 0.0
30/04:30am 4.6 -1.2 2.5 86 0.9 E 22 28 12 15 1027.4 1027.5 0.0
30/04:00am 4.4 -0.4 2.6 88 0.7 E 17 22 9 12 1027.4 1027.5 0.0
30/03:30am 4.8 0.8 2.8 87 0.8 E 13 17 7 9 1027.8 1028.0 0.0
30/03:00am 4.8 0.1 3.1 89 0.7 E 17 19 9 10 1027.9 1028.1 0.0
30/02:30am 5.7 1.1 3.7 87 0.9 E 17 19 9 10 1028.2 1028.4 0.0
30/02:00am 5.7 1.5 4.0 89 0.7 E 15 17 8 9 1028.6 1028.8 0.0
30/01:30am 6.3 1.8 4.3 87 0.9 E 17 19 9 10 1028.9 1029.1 0.0
30/01:00am 6.2 2.1 4.2 87 0.9 E 15 19 8 10 1028.9 1029.1 0.0
30/12:30am 6.4 3.1 4.4 87 0.9 E 11 15 6 8 1029.4 1029.6 0.0
30/12:00am 6.3 1.4 4.3 87 0.9 E 19 22 10 12 1029.2 1029.4 0.0
 
Date/Time
EST
Temp
°C
App
Temp
°C
Dew
Point
Rel
Hum
%
Delta-T
°C
Wind Press
QNH
hPa
Press
MSL
hPa
Rain
since 9 am
mm
Dir
 
Spd
km/h
Gust
km/h
Spd
kts
Gust
kts
29/11:30pm 5.8 2.7 3.6 86 0.9 E 9 13 5 7 1030.1 1030.3 0.0
29/11:00pm 6.0 2.6 4.0 87 0.9 ESE 11 13 6 7 1030.0 1030.2 0.0
29/10:30pm 5.5 2.7 3.3 86 0.9 SSE 7 9 4 5 1030.3 1030.5 0.0
29/10:00pm 5.4 2.5 2.6 82 1.1 S 7 11 4 6 1030.6 1030.8 0.0
29/09:30pm 6.8 5.4 3.8 81 1.3 CALM 0 0 0 0 1029.4 1029.6 0.0
29/09:00pm 7.0 4.0 4.1 82 1.3 ENE 9 11 5 6 1029.4 1029.6 0.0
29/08:30pm 6.9 5.5 3.7 80 1.4 CALM 0 0 0 0 1030.0 1030.2 0.0
29/08:00pm 7.7 5.6 3.9 77 1.6 SW 4 7 2 4 1030.5 1030.7 0.0
29/07:30pm 10.3 8.4 5.1 70 2.4 NW 4 9 2 5 1030.6 1030.8 0.0
29/07:00pm 9.6 8.4 4.6 71 2.2 CALM 0 0 0 0 1029.8 1030.0 0.0
29/06:30pm 11.1 9.9 4.6 64 3.0 CALM 0 0 0 0 1029.5 1029.7 0.0
29/06:00pm 12.1 10.8 4.3 59 3.5 CALM 0 0 0 0 1029.0 1029.2 0.0
29/05:30pm 13.9 12.6 4.2 52 4.5 CALM 0 0 0 0 1028.9 1029.1 0.0
29/05:00pm 15.3 13.9 3.8 46 5.3 CALM 0 0 0 0 1029.0 1029.2 0.0
29/04:30pm 16.1 14.7 3.5 43 5.9 CALM 0 0 0 0 1029.2 1029.4 0.0
29/04:00pm 16.4 13.9 3.8 43 5.9 ENE 6 13 3 7 1029.2 1029.4 0.0
29/03:30pm 16.6 13.6 4.3 44 5.8 NNE 9 13 5 7 1029.2 1029.4 0.0
29/03:00pm 16.7 14.0 3.7 42 6.1 NE 7 13 4 7 1029.2 1029.4 0.0
29/02:30pm 17.2 13.8 3.8 41 6.3 NNE 11 19 6 10 1029.2 1029.4 0.0
29/02:00pm 16.8 13.5 4.8 45 5.7 NNE 11 19 6 10 1029.4 1029.6 0.0
29/01:30pm 16.8 13.7 5.4 47 5.5 NNE 11 17 6 9 1029.8 1030.0 0.0
29/01:00pm 16.4 12.6 5.7 49 5.2 N 15 19 8 10 1030.3 1030.5 0.0
29/12:30pm 16.0 12.1 5.3 49 5.2 NE 15 22 8 12 1031.2 1031.3 0.0
29/12:00pm 15.2 10.9 5.4 52 4.7 NE 17 22 9 12 1031.7 1031.9 0.0
29/11:30am 15.1 10.9 5.9 54 4.5 NNE 17 24 9 13 1032.2 1032.4 0.0
29/11:00am 14.3 9.7 3.7 49 4.8 NE 17 24 9 13 1032.9 1033.1 0.0
29/10:30am 13.1 9.0 4.3 55 4.1 ENE 15 19 8 10 1033.3 1033.5 0.0
29/10:00am 12.0 8.3 4.2 59 3.5 ENE 13 17 7 9 1033.7 1033.9 0.0
29/09:30am 10.4 5.5 4.1 65 2.8 E 19 24 10 13 1033.7 1033.9 0.0
29/09:00am 8.9 4.2 3.3 68 2.4 E 17 20 9 11 1033.7 1033.9 0.0
29/08:30am 7.3 2.7 3.7 78 1.6 E 17 19 9 10 1033.4 1033.6 0.0
29/08:00am 5.0 -0.5 2.0 81 1.2 E 20 26 11 14 1032.8 1033.0 0.0
29/07:30am 3.3 -3.2 0.4 81 1.1 ENE 24 32 13 17 1032.5 1032.7 0.0
29/07:00am 2.3 -3.9 0.0 85 0.8 ENE 22 28 12 15 1032.5 1032.7 0.0
29/06:30am 2.0 -4.1 0.1 87 0.7 ENE 22 30 12 16 1032.2 1032.4 0.0
29/06:00am 1.0 -4.7 -0.5 90 0.5 E 19 24 10 13 1032.0 1032.2 0.0
29/05:30am 1.3 -3.9 -0.2 90 0.6 E 17 19 9 10 1031.7 1031.9 0.0
29/05:00am 1.1 -3.8 -0.2 91 0.5 E 15 17 8 9 1031.5 1031.6 0.0
29/04:30am 1.0 -3.8 0.0 93 0.4 E 15 17 8 9 1031.2 1031.3 0.0
29/04:00am 1.0 -0.9 0.3 95 0.3 CALM 0 0 0 0 1031.2 1031.3 0.0
29/03:30am 0.3 -1.8 -0.7 93 0.4 CALM 0 0 0 0 1031.5 1031.6 0.0
29/03:00am 0.9 -1.1 0.2 95 0.3 CALM 0 0 0 0 1031.5 1031.6 0.0
29/02:30am 1.2 -0.7 0.3 94 0.3 CALM 0 0 0 0 1031.3 1031.4 0.0
29/02:00am 1.2 -0.8 0.0 92 0.4 CALM 0 0 0 0 1031.4 1031.5 0.0
29/01:30am 1.3 -0.7 0.1 92 0.4 CALM 0 0 0 0 1031.4 1031.5 0.0
29/01:00am 2.2 0.4 0.9 91 0.5 CALM 0 0 0 0 1031.4 1031.5 0.0
29/12:30am 2.1 0.2 0.5 89 0.6 CALM 0 0 0 0 1031.3 1031.4 0.0
29/12:00am 2.5 0.7 1.0 90 0.6 CALM 0 0 0 0 1031.3 1031.4 0.0
 
Date/Time
EST
Temp
°C
App
Temp
°C
Dew
Point
Rel
Hum
%
Delta-T
°C
Wind Press
QNH
hPa
Press
MSL
hPa
Rain
since 9 am
mm
Dir
 
Spd
km/h
Gust
km/h
Spd
kts
Gust
kts
28/11:30pm 2.9 -0.7 0.8 86 0.8 SSW 9 9 5 5 1031.8 1032.0 0.0
28/11:00pm 3.8 0.3 1.4 84 0.9 SW 9 11 5 6 1032.0 1032.2 0.0
28/10:30pm 3.6 0.7 1.3 85 0.9 SSW 6 9 3 5 1031.7 1031.9 0.0
28/10:00pm 3.9 1.0 1.3 83 1.0 SW 6 9 3 5 1031.6 1031.7 0.0
28/09:30pm 4.8 1.4 1.6 80 1.3 SW 9 9 5 5 1031.5 1031.6 0.0

Other Formats:

Comma delimited format used in spreadsheet applications
http://www.bom.gov.au/fwo/IDN60801/IDN60801.95527.axf

JavaScript Object Notation format (JSON) in row-major order
http://www.bom.gov.au/fwo/IDN60801/IDN60801.95527.json